Time;durP1;ratioP1;P1;durP2;ratioP2;P2;SDS_P1;SDS_P2;PMS_P1;PMS_P2;Temp;Humidity;BMP_temperature;BMP_pressure;BME280_temperature;BME280_humidity;BME280_pressure;Samples;Min_cycle;Max_cycle;Signal;HPM_P1;HPM_P2
2022/04/29 00:00:38;;;;;;;8.80;2.97;;;7.90;99.90;;;;;;5050094;28;20166;-78
2022/04/29 00:03:07;;;;;;;8.18;3.10;;;7.60;99.90;;;;;;5050305;28;20045;-79
2022/04/29 00:05:34;;;;;;;10.90;3.15;;;7.60;99.90;;;;;;5050011;28;20041;-80
2022/04/29 00:08:01;;;;;;;6.82;2.70;;;7.50;99.90;;;;;;5050357;28;20428;-78
2022/04/29 00:10:26;;;;;;;6.95;3.20;;;7.50;99.90;;;;;;5033388;28;20032;-78
2022/04/29 00:12:53;;;;;;;6.43;3.17;;;7.50;99.90;;;;;;5050754;28;20048;-79
2022/04/29 00:15:20;;;;;;;8.85;3.20;;;7.50;99.90;;;;;;5051706;28;20070;-79
2022/04/29 00:17:47;;;;;;;7.03;3.08;;;7.50;99.90;;;;;;5054325;28;20046;-79
2022/04/29 00:20:14;;;;;;;8.07;3.05;;;7.50;99.90;;;;;;5037689;28;20123;-79
2022/04/29 00:22:41;;;;;;;10.45;3.50;;;7.50;99.90;;;;;;5053619;28;20131;-79
2022/04/29 00:25:07;;;;;;;;;;;7.50;99.90;;;;;;5051348;28;20049;-78
2022/04/29 00:27:33;;;;;;;7.63;2.97;;;7.50;99.90;;;;;;5053671;28;19920;-79
2022/04/29 00:29:59;;;;;;;8.13;3.20;;;7.50;99.90;;;;;;5054422;28;20488;-78
2022/04/29 00:32:25;;;;;;;6.22;2.80;;;7.50;99.90;;;;;;5053860;28;20074;-79
2022/04/29 00:34:50;;;;;;;8.38;3.22;;;7.50;99.90;;;;;;5050907;28;20036;-78
2022/04/29 00:37:17;;;;;;;10.73;3.50;;;7.60;99.90;;;;;;5050646;28;20075;-79
2022/04/29 00:39:43;;;;;;;10.40;3.17;;;7.60;99.90;;;;;;5053711;28;20519;-78
2022/04/29 00:42:17;;;;;;;9.25;3.55;;;7.90;99.90;;;;;;5054230;28;20106;-79
2022/04/29 00:44:45;;;;;;;9.15;3.78;;;7.50;99.90;;;;;;5053280;28;20040;-79
2022/04/29 00:47:17;;;;;;;10.15;3.67;;;7.40;99.90;;;;;;5050900;28;20480;-78
2022/04/29 00:49:43;;;;;;;6.90;3.58;;;7.50;99.90;;;;;;5049988;28;20044;-79
2022/04/29 00:52:14;;;;;;;10.25;3.88;;;7.70;99.90;;;;;;5050280;28;20087;-79
2022/04/29 00:54:47;;;;;;;10.60;4.22;;;7.40;99.90;;;;;;5050113;28;20052;-80
2022/04/29 00:57:49;;;;;;;11.75;4.50;;;7.40;99.90;;;;;;5053893;28;20044;-79
2022/04/29 01:00:16;;;;;;;8.15;4.20;;;7.40;99.90;;;;;;5053524;28;20086;-79
2022/04/29 01:02:45;;;;;;;9.40;4.38;;;7.30;99.90;;;;;;5053254;28;20055;-79
2022/04/29 01:05:13;;;;;;;11.05;4.63;;;7.30;99.90;;;;;;5053244;28;20102;-79
2022/04/29 01:07:41;;;;;;;7.80;4.93;;;7.30;99.90;;;;;;5053036;28;20079;-79
2022/04/29 01:10:10;;;;;;;13.40;4.65;;;7.30;99.90;;;;;;5053417;28;20040;-78
2022/04/29 01:12:37;;;;;;;8.57;4.88;;;7.20;99.90;;;;;;5053177;28;20068;-79
2022/04/29 01:15:15;;;;;;;10.57;4.85;;;7.20;99.90;;;;;;5053162;28;20040;-79
2022/04/29 01:17:45;;;;;;;10.63;4.65;;;7.20;99.90;;;;;;5052882;28;20041;-79
2022/04/29 01:20:14;;;;;;;9.55;5.10;;;7.20;99.90;;;;;;5053030;28;20119;-79
2022/04/29 01:22:41;;;;;;;11.23;5.53;;;7.10;99.90;;;;;;5053119;28;20629;-79
2022/04/29 01:25:06;;;;;;;;;;;7.10;99.90;;;;;;5053523;28;20052;-79
2022/04/29 01:27:32;;;;;;;10.10;4.97;;;7.10;99.90;;;;;;5068260;28;20394;-79
2022/04/29 01:30:07;;;;;;;7.75;4.30;;;7.30;99.90;;;;;;5053004;28;20041;-79
2022/04/29 01:32:34;;;;;;;9.77;4.43;;;7.10;99.90;;;;;;5052558;28;20109;-78
2022/04/29 01:35:01;;;;;;;8.98;4.20;;;7.10;99.90;;;;;;5050223;28;20097;-79
2022/04/29 01:37:26;;;;;;;;;;;7.10;99.90;;;;;;5053530;28;20071;-79
2022/04/29 01:39:52;;;;;;;12.43;5.03;;;7.20;99.90;;;;;;5069188;28;19978;-79
2022/04/29 01:42:18;;;;;;;7.25;4.50;;;7.20;99.90;;;;;;5052906;28;20491;-79
2022/04/29 01:44:45;;;;;;;11.53;5.40;;;7.20;99.90;;;;;;5052037;28;20127;-78
2022/04/29 01:47:12;;;;;;;7.45;4.32;;;7.20;99.90;;;;;;5036100;28;20146;-79
2022/04/29 01:49:37;;;;;;;7.15;4.18;;;7.30;99.90;;;;;;5035759;28;20089;-79
2022/04/29 01:52:04;;;;;;;8.25;4.57;;;7.20;99.90;;;;;;5052294;28;20492;-79
2022/04/29 01:54:29;;;;;;;;;;;7.20;99.90;;;;;;5052637;28;20102;-79
2022/04/29 01:56:55;;;;;;;9.80;4.10;;;7.20;99.90;;;;;;5052511;28;20003;-78
2022/04/29 01:59:21;;;;;;;6.72;4.30;;;7.20;99.90;;;;;;5052705;28;20052;-78
2022/04/29 02:01:48;;;;;;;10.67;4.70;;;7.20;99.90;;;;;;5051794;28;20032;-79
2022/04/29 02:04:13;;;;;;;;;;;7.20;99.90;;;;;;5052861;28;20064;-79
2022/04/29 02:06:39;;;;;;;10.45;4.45;;;7.10;99.90;;;;;;5048907;28;20006;-79
2022/04/29 02:09:05;;;;;;;10.07;4.60;;;7.10;99.90;;;;;;5032169;28;20039;-78
2022/04/29 02:11:32;;;;;;;10.10;5.22;;;7.10;99.90;;;;;;5032148;28;20123;-79
2022/04/29 02:13:57;;;;;;;8.50;5.10;;;7.00;99.90;;;;;;5052212;28;20051;-79
2022/04/29 02:16:23;;;;;;;11.33;4.83;;;7.00;99.90;;;;;;5052136;28;20048;-79
2022/04/29 02:18:49;;;;;;;7.75;5.38;;;7.00;99.90;;;;;;5051591;28;20036;-79
2022/04/29 02:21:15;;;;;;;13.98;5.53;;;6.90;99.90;;;;;;5035755;28;20048;-78
2022/04/29 02:23:41;;;;;;;11.52;5.47;;;6.80;99.90;;;;;;5051667;28;20055;-80
2022/04/29 02:26:06;;;;;;;10.38;5.00;;;6.80;99.90;;;;;;5051665;28;20132;-79
2022/04/29 02:28:32;;;;;;;8.87;5.70;;;6.70;99.90;;;;;;5051514;28;20495;-78
2022/04/29 02:31:00;;;;;;;8.93;5.27;;;6.70;99.90;;;;;;5051831;28;20040;-79
2022/04/29 02:33:27;;;;;;;10.32;5.43;;;6.70;99.90;;;;;;5051690;28;20275;-79
2022/04/29 02:35:53;;;;;;;11.75;5.90;;;6.70;99.90;;;;;;5051035;28;20119;-80
2022/04/29 02:38:19;;;;;;;10.15;6.35;;;6.70;99.90;;;;;;5044182;28;20135;-79
2022/04/29 02:40:44;;;;;;;12.57;5.88;;;6.70;99.90;;;;;;5051085;28;20563;-78
2022/04/29 02:43:10;;;;;;;12.50;6.25;;;6.70;99.90;;;;;;5034901;28;20090;-78
2022/04/29 02:45:36;;;;;;;13.15;5.88;;;6.70;99.90;;;;;;5051105;28;20042;-79
2022/04/29 02:48:04;;;;;;;9.90;5.90;;;6.70;99.90;;;;;;5051674;28;20076;-79
2022/04/29 02:50:30;;;;;;;9.27;5.30;;;6.70;99.90;;;;;;5051819;28;20043;-79
2022/04/29 02:52:56;;;;;;;8.50;5.75;;;6.80;99.90;;;;;;5051596;28;20036;-79
2022/04/29 02:55:22;;;;;;;8.95;5.95;;;6.80;99.90;;;;;;5051867;28;20504;-79
2022/04/29 02:57:48;;;;;;;11.48;5.50;;;6.80;99.90;;;;;;5051440;28;20039;-79
2022/04/29 03:00:14;;;;;;;11.40;5.60;;;6.80;99.90;;;;;;5032534;28;20041;-79
2022/04/29 03:02:40;;;;;;;12.75;5.65;;;6.80;99.90;;;;;;5051302;28;20119;-80
2022/04/29 03:05:07;;;;;;;12.50;5.50;;;6.80;99.90;;;;;;5031466;28;20120;-79
2022/04/29 03:07:33;;;;;;;12.50;5.53;;;6.80;99.90;;;;;;5031549;28;20062;-79
2022/04/29 03:09:59;;;;;;;10.82;5.43;;;6.80;99.90;;;;;;5047635;28;20059;-79
2022/04/29 03:12:25;;;;;;;;;;;7.00;99.90;;;;;;5032222;28;20087;-79
2022/04/29 03:14:51;;;;;;;9.27;5.63;;;6.90;99.90;;;;;;5047513;28;19968;-80
2022/04/29 03:20:02;;;;;;;9.38;5.15;;;7.10;99.90;;;;;;5031271;28;20041;-79
2022/04/29 03:22:28;;;;;;;6.68;4.55;;;6.90;99.90;;;;;;5039846;28;20044;-79
2022/04/29 03:24:54;;;;;;;9.02;4.65;;;7.00;99.90;;;;;;5050541;28;20041;-79
2022/04/29 03:27:20;;;;;;;8.27;5.22;;;7.00;99.90;;;;;;5051073;28;20094;-80
2022/04/29 03:29:47;;;;;;;8.95;4.88;;;7.00;99.90;;;;;;5033978;28;20037;-79
2022/04/29 03:32:13;;;;;;;7.88;4.72;;;7.40;99.90;;;;;;5034328;28;20036;-79
2022/04/29 03:34:39;;;;;;;6.97;4.80;;;7.00;99.90;;;;;;5050942;28;20142;-79
2022/04/29 03:37:05;;;;;;;8.82;5.15;;;7.30;99.90;;;;;;5034759;28;20470;-79
2022/04/29 03:39:31;;;;;;;8.23;4.28;;;7.10;99.90;;;;;;5050642;28;20048;-79
2022/04/29 03:41:56;;;;;;;11.50;5.07;;;7.20;99.90;;;;;;5050893;28;20163;-79
2022/04/29 03:44:22;;;;;;;9.87;4.53;;;7.10;99.90;;;;;;5051061;28;20047;-78
2022/04/29 03:46:48;;;;;;;7.10;5.22;;;7.20;99.90;;;;;;5034026;28;20505;-79
2022/04/29 03:51:58;;;;;;;8.93;5.38;;;7.10;99.90;;;;;;5068150;28;20048;-79
2022/04/29 03:54:24;;;;;;;10.57;5.03;;;7.20;99.90;;;;;;5056031;28;20044;-79
2022/04/29 03:56:51;;;;;;;8.60;4.63;;;7.20;99.90;;;;;;5057191;28;20047;-79
2022/04/29 03:59:17;;;;;;;8.55;4.57;;;7.20;99.90;;;;;;5040801;28;20286;-79
2022/04/29 04:01:42;;;;;;;8.57;4.60;;;7.30;99.90;;;;;;5056856;28;20044;-79
2022/04/29 04:04:08;;;;;;;9.48;4.57;;;7.20;99.90;;;;;;5040893;28;20127;-79
2022/04/29 04:06:50;;;;;;;8.70;4.65;;;7.20;99.90;;;;;;5057837;28;20382;-80
2022/04/29 04:09:20;;;;;;;10.18;4.80;;;7.40;99.90;;;;;;5040629;28;20066;-79
2022/04/29 04:11:46;;;;;;;10.15;4.97;;;7.20;99.90;;;;;;5056942;28;20044;-79
2022/04/29 04:14:12;;;;;;;10.38;4.43;;;7.20;99.90;;;;;;5057625;28;20044;-79
2022/04/29 04:16:38;;;;;;;8.60;4.18;;;7.20;99.90;;;;;;5057677;28;20043;-79
2022/04/29 04:19:04;;;;;;;9.60;4.85;;;7.20;99.90;;;;;;5040331;28;20047;-79
2022/04/29 04:21:30;;;;;;;8.77;4.55;;;7.20;99.90;;;;;;5051618;28;20041;-78
2022/04/29 04:23:56;;;;;;;8.32;4.85;;;7.30;99.90;;;;;;5053651;28;20047;-79
2022/04/29 04:26:22;;;;;;;7.72;4.53;;;7.30;99.90;;;;;;5053850;28;20106;-79
2022/04/29 04:28:48;;;;;;;7.47;4.72;;;7.40;99.90;;;;;;5073519;28;20044;-79
2022/04/29 04:31:14;;;;;;;8.67;4.40;;;7.40;99.90;;;;;;5057489;28;20094;-78
2022/04/29 04:33:40;;;;;;;9.15;4.45;;;7.70;99.90;;;;;;5057679;28;20043;-78
2022/04/29 04:36:06;;;;;;;8.23;5.05;;;7.60;99.90;;;;;;5057213;28;20040;-79
2022/04/29 04:38:32;;;;;;;6.63;5.27;;;7.40;99.90;;;;;;5057459;28;20089;-80
2022/04/29 04:40:59;;;;;;;9.38;4.80;;;7.40;99.90;;;;;;5040210;28;20293;-80
2022/04/29 04:43:25;;;;;;;;;;;7.50;99.90;;;;;;5057434;28;20040;-79
2022/04/29 04:45:54;;;;;;;9.80;5.18;;;7.50;99.90;;;;;;5053429;28;20365;-78
2022/04/29 04:48:20;;;;;;;10.63;4.80;;;7.50;99.90;;;;;;5054069;28;20040;-79
2022/04/29 04:50:46;;;;;;;6.68;4.55;;;7.50;99.90;;;;;;5053523;28;20035;-80
2022/04/29 04:53:12;;;;;;;7.88;4.97;;;7.50;99.90;;;;;;5056918;28;20706;-79
2022/04/29 04:55:40;;;;;;;12.88;5.28;;;7.60;99.90;;;;;;5057838;28;20550;-79
2022/04/29 04:58:06;;;;;;;9.20;4.80;;;7.60;99.90;;;;;;5057413;28;20542;-79
2022/04/29 05:00:32;;;;;;;8.38;4.63;;;7.70;99.90;;;;;;5057431;28;20116;-78
2022/04/29 05:02:57;;;;;;;9.27;4.95;;;7.70;99.90;;;;;;5052729;28;20037;-79
2022/04/29 05:05:23;;;;;;;8.20;4.47;;;7.80;99.90;;;;;;5054145;28;20066;-79
2022/04/29 05:07:49;;;;;;;7.00;4.47;;;7.90;99.90;;;;;;5053555;28;20112;-79
2022/04/29 05:10:15;;;;;;;7.53;4.50;;;8.20;99.90;;;;;;5054213;28;20037;-78
2022/04/29 05:12:46;;;;;;;9.93;4.73;;;8.00;99.90;;;;;;5054082;28;20037;-78
2022/04/29 05:15:16;;;;;;;7.13;4.60;;;8.10;99.90;;;;;;5054113;28;20359;-78
2022/04/29 05:17:43;;;;;;;8.68;4.70;;;8.20;99.90;;;;;;5037655;28;20052;-79
2022/04/29 05:20:11;;;;;;;8.93;4.65;;;8.20;99.90;;;;;;5054064;28;20044;-79
2022/04/29 05:22:38;;;;;;;6.03;4.35;;;8.20;99.90;;;;;;5053862;28;20040;-79
2022/04/29 05:25:05;;;;;;;7.28;4.32;;;8.30;99.90;;;;;;5052992;28;20139;-78
2022/04/29 05:27:31;;;;;;;8.60;4.63;;;8.30;99.90;;;;;;5053709;28;20059;-78
2022/04/29 05:29:57;;;;;;;7.07;4.20;;;8.30;99.90;;;;;;5036855;28;20052;-79
2022/04/29 05:32:24;;;;;;;7.60;4.13;;;8.30;99.90;;;;;;5053889;28;20488;-79
2022/04/29 05:34:50;;;;;;;6.03;4.20;;;8.30;99.90;;;;;;5053081;28;20514;-77
2022/04/29 05:37:16;;;;;;;11.45;4.72;;;8.40;99.90;;;;;;5053607;28;20049;-77
2022/04/29 05:42:26;;;;;;;7.50;4.20;;;8.50;99.90;;;;;;5053708;28;20400;-78
2022/04/29 05:44:53;;;;;;;10.68;4.18;;;8.50;99.90;;;;;;5052789;28;20037;-78
2022/04/29 05:47:19;;;;;;;9.55;4.15;;;8.40;99.90;;;;;;5053535;28;20561;-78
2022/04/29 05:49:44;;;;;;;9.32;4.50;;;8.40;99.90;;;;;;5053309;28;20024;-78
2022/04/29 05:52:10;;;;;;;11.57;4.60;;;8.40;99.90;;;;;;5036867;28;20056;-78
2022/04/29 05:54:37;;;;;;;7.07;4.32;;;8.50;99.90;;;;;;5036806;28;20047;-78
2022/04/29 05:57:03;;;;;;;;;;;8.40;99.90;;;;;;5053439;28;20040;-79
2022/04/29 05:59:29;;;;;;;10.05;4.47;;;8.50;99.90;;;;;;5052439;28;19962;-78
2022/04/29 06:01:55;;;;;;;9.27;4.82;;;8.50;99.90;;;;;;5032830;28;20056;-78
2022/04/29 06:04:21;;;;;;;10.48;4.90;;;8.50;99.90;;;;;;5049640;28;20106;-78
2022/04/29 06:06:47;;;;;;;11.50;4.30;;;8.50;99.90;;;;;;5052508;28;20032;-79
2022/04/29 06:09:13;;;;;;;8.20;4.18;;;8.60;99.90;;;;;;5053169;28;20490;-78
2022/04/29 06:11:38;;;;;;;10.87;4.27;;;8.60;99.90;;;;;;5053017;28;20507;-78
2022/04/29 06:14:04;;;;;;;6.10;3.70;;;8.60;99.90;;;;;;5051988;28;20370;-78
2022/04/29 06:16:30;;;;;;;6.85;3.90;;;8.70;99.90;;;;;;5052693;28;20056;-79
2022/04/29 06:18:55;;;;;;;8.67;3.73;;;8.60;99.90;;;;;;5052558;28;20055;-78
2022/04/29 06:21:21;;;;;;;7.30;4.20;;;8.60;99.90;;;;;;5052585;28;20048;-78
2022/04/29 06:23:48;;;;;;;5.65;3.05;;;8.70;99.90;;;;;;5052792;28;20113;-78
2022/04/29 06:26:14;;;;;;;8.60;3.20;;;8.80;99.90;;;;;;5052275;28;20063;-78
2022/04/29 06:28:40;;;;;;;7.45;2.90;;;8.90;99.90;;;;;;5052646;28;20098;-79
2022/04/29 06:31:06;;;;;;;6.90;2.88;;;9.00;99.90;;;;;;5051917;28;20036;-79
2022/04/29 06:33:33;;;;;;;;;;;9.00;99.90;;;;;;5052944;28;20028;-79
2022/04/29 06:35:59;;;;;;;4.88;2.72;;;9.20;99.90;;;;;;5052055;28;20380;-79
2022/04/29 06:38:25;;;;;;;10.55;3.15;;;9.10;99.90;;;;;;5052435;28;20123;-78
2022/04/29 06:40:52;;;;;;;8.88;2.60;;;9.20;99.90;;;;;;5051870;28;20043;-78
2022/04/29 06:43:18;;;;;;;6.20;2.88;;;9.20;99.90;;;;;;5019614;28;20515;-77
2022/04/29 06:45:44;;;;;;;6.93;2.30;;;9.10;99.90;;;;;;5048759;28;20052;-78
2022/04/29 06:48:10;;;;;;;6.13;2.70;;;9.20;99.90;;;;;;5047607;28;20037;-78
2022/04/29 06:50:35;;;;;;;5.60;2.50;;;9.20;99.90;;;;;;5032628;28;20124;-79
2022/04/29 06:53:01;;;;;;;7.20;2.80;;;9.30;99.90;;;;;;5050498;28;20279;-78
2022/04/29 06:55:27;;;;;;;8.13;2.50;;;9.60;99.90;;;;;;5045922;28;20286;-78
2022/04/29 06:57:53;;;;;;;7.15;3.20;;;9.80;99.90;;;;;;5046300;28;20045;-78
2022/04/29 07:00:19;;;;;;;4.85;2.40;;;9.90;99.90;;;;;;5041347;28;20430;-79
2022/04/29 07:02:45;;;;;;;10.13;2.75;;;9.90;99.90;;;;;;5041927;28;20071;-79
2022/04/29 07:05:11;;;;;;;8.95;2.42;;;9.80;99.90;;;;;;5031506;28;20098;-80
2022/04/29 07:07:37;;;;;;;8.93;2.70;;;9.90;99.90;;;;;;5015548;28;20036;-79
2022/04/29 07:10:04;;;;;;;6.60;2.40;;;9.80;99.90;;;;;;5031504;28;20052;-79
2022/04/29 07:12:31;;;;;;;4.75;2.40;;;9.70;99.90;;;;;;5046324;28;20048;-79
2022/04/29 07:14:57;;;;;;;4.72;2.33;;;9.60;99.90;;;;;;5047922;28;20041;-78
2022/04/29 07:17:23;;;;;;;6.85;2.38;;;9.70;99.90;;;;;;5048452;28;20045;-78
2022/04/29 07:19:53;;;;;;;5.85;2.53;;;9.60;99.90;;;;;;5048567;28;20071;-78
2022/04/29 07:22:19;;;;;;;8.20;2.80;;;9.60;99.90;;;;;;5031918;28;20037;-78
2022/04/29 07:24:45;;;;;;;5.20;2.50;;;9.60;99.90;;;;;;5047572;28;20553;-78
2022/04/29 07:27:13;;;;;;;6.65;2.92;;;9.50;99.90;;;;;;5051042;28;20480;-78
2022/04/29 07:29:39;;;;;;;7.03;2.97;;;9.50;99.90;;;;;;5051698;28;20481;-77
2022/04/29 07:32:05;;;;;;;8.48;3.30;;;9.50;99.90;;;;;;5034488;28;20094;-77
2022/04/29 07:42:43;;;;;;;4.80;2.88;;;9.50;99.90;;;;;;5030425;28;20044;-80
2022/04/29 07:45:09;;;;;;;6.90;3.20;;;9.60;99.90;;;;;;5031066;28;20071;-79
2022/04/29 07:47:36;;;;;;;5.60;3.20;;;9.60;99.90;;;;;;5031676;28;20044;-79
2022/04/29 07:50:03;;;;;;;10.05;3.17;;;9.70;99.90;;;;;;5031377;28;20459;-79
2022/04/29 07:52:29;;;;;;;10.70;3.47;;;9.80;99.90;;;;;;5031577;28;20374;-79
2022/04/29 07:54:55;;;;;;;6.65;2.97;;;9.80;99.90;;;;;;5031168;28;20075;-80
2022/04/29 07:57:21;;;;;;;7.82;3.20;;;9.90;99.90;;;;;;5031716;28;20047;-80
2022/04/29 07:59:46;;;;;;;9.55;3.47;;;10.00;99.90;;;;;;5031554;28;20087;-79
2022/04/29 08:02:12;;;;;;;6.25;3.00;;;9.90;99.90;;;;;;5049713;28;20055;-78
2022/04/29 08:04:38;;;;;;;6.20;3.30;;;9.90;99.90;;;;;;5051472;28;20089;-79
2022/04/29 08:07:04;;;;;;;7.40;3.23;;;10.30;99.90;;;;;;5050888;28;20283;-79
2022/04/29 08:09:29;;;;;;;7.30;2.90;;;10.10;99.90;;;;;;5051366;28;20043;-79
2022/04/29 08:11:56;;;;;;;5.93;3.38;;;10.10;99.90;;;;;;5051361;28;20056;-79
2022/04/29 08:14:22;;;;;;;5.43;2.75;;;10.10;99.90;;;;;;5051461;28;20036;-80
2022/04/29 08:16:49;;;;;;;3.70;2.40;;;10.20;99.90;;;;;;5051538;28;20129;-79
2022/04/29 08:19:15;;;;;;;5.60;2.97;;;10.20;99.90;;;;;;5034972;28;20536;-79
2022/04/29 08:21:41;;;;;;;7.28;3.08;;;10.10;99.90;;;;;;5051425;28;20124;-79
2022/04/29 08:24:07;;;;;;;6.28;3.20;;;10.20;99.90;;;;;;5050776;28;20082;-79
2022/04/29 08:26:32;;;;;;;4.07;2.80;;;10.10;99.90;;;;;;5051067;28;20095;-79
2022/04/29 08:28:58;;;;;;;4.18;2.70;;;10.10;99.90;;;;;;5051066;28;20055;-80
2022/04/29 08:31:25;;;;;;;6.07;2.88;;;10.10;99.90;;;;;;5051434;28;20032;-79
2022/04/29 08:33:51;;;;;;;7.78;2.90;;;10.20;99.90;;;;;;5051323;28;20638;-80
2022/04/29 08:36:17;;;;;;;6.75;2.75;;;10.40;99.90;;;;;;5052128;28;20128;-79
2022/04/29 08:38:43;;;;;;;6.45;2.42;;;10.60;99.90;;;;;;5051714;28;20041;-79
2022/04/29 08:41:10;;;;;;;6.55;2.53;;;10.70;99.90;;;;;;5051424;28;20110;-79
2022/04/29 08:43:38;;;;;;;4.72;1.90;;;11.00;99.90;;;;;;5051708;28;20113;-80
2022/04/29 08:46:06;;;;;;;6.88;2.67;;;11.20;99.90;;;;;;5054531;28;20374;-81
2022/04/29 08:48:33;;;;;;;5.07;1.70;;;11.30;99.90;;;;;;5054956;28;20542;-81
2022/04/29 08:50:59;;;;;;;3.42;2.20;;;11.20;99.90;;;;;;5037649;28;20048;-80
2022/04/29 08:53:25;;;;;;;3.25;2.25;;;11.20;99.90;;;;;;5055265;28;20033;-81
2022/04/29 08:58:38;;;;;;;3.45;2.08;;;11.10;99.90;;;;;;5054304;28;20056;-80
2022/04/29 09:01:16;;;;;;;3.80;2.15;;;11.00;99.90;;;;;;5053948;28;20041;-80
2022/04/29 09:03:44;;;;;;;5.13;2.55;;;11.00;99.90;;;;;;5054335;28;20040;-80
2022/04/29 09:06:10;;;;;;;6.78;2.40;;;10.90;99.90;;;;;;5036996;28;20068;-80
2022/04/29 09:08:46;;;;;;;5.75;2.50;;;11.00;99.90;;;;;;5054203;28;20097;-82
2022/04/29 09:11:26;;;;;;;7.37;2.80;;;11.10;99.90;;;;;;5037158;28;20108;-81
2022/04/29 09:13:53;;;;;;;12.48;2.35;;;11.00;99.90;;;;;;5050481;28;20033;-80
2022/04/29 09:16:19;;;;;;;8.18;2.40;;;10.90;99.90;;;;;;5053852;28;20047;-80
2022/04/29 09:18:50;;;;;;;4.57;2.08;;;11.00;99.90;;;;;;5053707;28;20376;-80
2022/04/29 09:21:17;;;;;;;4.00;2.30;;;10.80;99.90;;;;;;5037048;28;20098;-80
2022/04/29 09:23:56;;;;;;;3.22;2.13;;;10.80;99.90;;;;;;5054306;28;20398;-80
2022/04/29 09:26:24;;;;;;;6.30;2.10;;;10.70;99.90;;;;;;5043634;28;20124;-81
2022/04/29 09:28:52;;;;;;;4.78;2.25;;;10.70;99.90;;;;;;5054091;28;20682;-80
2022/04/29 09:31:17;;;;;;;4.85;2.38;;;10.70;99.90;;;;;;5053349;28;20040;-81
2022/04/29 09:33:58;;;;;;;5.13;2.70;;;10.80;99.90;;;;;;5037767;28;20149;-81
2022/04/29 09:36:26;;;;;;;5.38;2.63;;;10.70;99.90;;;;;;5051323;28;20036;-81
2022/04/29 09:41:37;;;;;;;3.63;2.17;;;10.80;99.90;;;;;;5044496;28;20041;-81
2022/04/29 09:44:03;;;;;;;4.80;2.58;;;10.80;99.90;;;;;;5063981;28;20472;-81
2022/04/29 09:46:29;;;;;;;4.80;2.65;;;10.80;99.90;;;;;;5038686;28;20167;-81
2022/04/29 09:48:59;;;;;;;6.00;2.50;;;10.90;99.90;;;;;;5052393;28;20048;-81
2022/04/29 09:51:44;;;;;;;5.15;2.70;;;10.90;99.90;;;;;;5052744;28;20107;-81
2022/04/29 09:54:25;;;;;;;6.05;3.85;;;11.00;99.90;;;;;;5034988;28;20488;-80
2022/04/29 09:57:12;;;;;;;5.32;3.38;;;10.80;99.90;;;;;;5053116;28;20079;-81
2022/04/29 09:59:42;;;;;;;6.07;2.95;;;10.80;99.90;;;;;;5053045;28;20082;-82
2022/04/29 10:02:10;;;;;;;4.85;2.70;;;10.80;99.90;;;;;;5052620;28;20040;-81
2022/04/29 10:04:38;;;;;;;5.13;3.08;;;10.80;99.90;;;;;;5045855;28;20404;-81
2022/04/29 10:07:05;;;;;;;5.78;3.10;;;10.70;99.90;;;;;;5046406;28;20047;-80
2022/04/29 10:09:33;;;;;;;5.93;3.10;;;10.70;99.90;;;;;;5038253;28;20107;-81
2022/04/29 10:12:04;;;;;;;3.50;2.80;;;10.60;99.90;;;;;;5044519;28;20048;-81
2022/04/29 10:14:32;;;;;;;9.00;3.47;;;10.80;99.90;;;;;;5052963;28;20044;-80
2022/04/29 10:22:50;;;;;;;6.32;3.08;;;10.80;99.90;;;;;;5052389;28;20067;-81
2022/04/29 10:25:18;;;;;;;5.00;3.10;;;10.90;99.90;;;;;;5052221;28;20094;-81
2022/04/29 10:27:45;;;;;;;6.70;2.90;;;10.90;99.90;;;;;;5052307;28;20053;-81
2022/04/29 10:30:11;;;;;;;6.95;3.50;;;10.90;99.90;;;;;;5049178;28;20512;-81
2022/04/29 10:32:59;;;;;;;6.70;2.65;;;10.70;99.90;;;;;;5033882;28;20036;-80
2022/04/29 10:35:40;;;;;;;;;;;10.70;99.90;;;;;;5052642;28;20047;-80
2022/04/29 10:38:23;;;;;;;4.82;3.45;;;10.60;99.90;;;;;;5068420;28;19916;-80
2022/04/29 10:41:09;;;;;;;5.60;3.67;;;10.70;99.90;;;;;;5052232;28;20051;-81
2022/04/29 10:43:38;;;;;;;7.43;3.50;;;10.60;99.90;;;;;;5049008;28;20049;-80
2022/04/29 10:46:04;;;;;;;8.63;3.88;;;10.50;99.90;;;;;;5049172;28;20051;-80
2022/04/29 10:48:39;;;;;;;7.37;3.43;;;10.60;99.90;;;;;;5049238;28;20476;-81
2022/04/29 10:51:16;;;;;;;12.02;3.55;;;10.70;99.90;;;;;;5048806;28;20358;-81
2022/04/29 10:53:44;;;;;;;6.90;3.30;;;10.70;99.90;;;;;;5047631;28;20099;-80
2022/04/29 10:56:29;;;;;;;5.65;3.45;;;10.80;99.90;;;;;;5048662;28;20044;-81
2022/04/29 10:58:59;;;;;;;6.50;3.17;;;10.70;99.90;;;;;;5032036;28;20552;-79
2022/04/29 11:01:27;;;;;;;6.13;3.40;;;10.80;99.90;;;;;;5031388;28;20116;-80
2022/04/29 11:03:53;;;;;;;4.30;3.35;;;10.90;99.90;;;;;;5052122;28;20041;-79
2022/04/29 11:06:19;;;;;;;6.05;3.03;;;11.00;99.90;;;;;;5035000;28;20037;-80
2022/04/29 11:08:46;;;;;;;6.43;3.00;;;11.00;99.90;;;;;;5044799;28;20396;-80
2022/04/29 11:11:12;;;;;;;5.40;3.30;;;11.00;99.90;;;;;;5044333;28;20048;-80
2022/04/29 11:13:44;;;;;;;4.45;3.40;;;11.00;99.90;;;;;;5045546;28;20384;-80
2022/04/29 11:16:12;;;;;;;5.18;3.05;;;11.10;99.90;;;;;;5042234;28;20496;-80
2022/04/29 11:18:41;;;;;;;4.85;3.20;;;11.10;99.90;;;;;;5063037;28;20072;-80
2022/04/29 11:26:50;;;;;;;5.32;2.67;;;11.30;99.90;;;;;;5051481;28;20045;-81
2022/04/29 11:29:19;;;;;;;3.75;2.60;;;11.20;99.90;;;;;;5051475;28;20155;-81
2022/04/29 11:31:45;;;;;;;5.13;2.95;;;11.10;99.90;;;;;;5051370;28;21221;-81
2022/04/29 11:34:14;;;;;;;7.75;2.80;;;11.00;99.90;;;;;;5050980;28;20037;-80
2022/04/29 11:36:40;;;;;;;7.07;2.88;;;11.00;99.90;;;;;;5051410;28;20036;-80
2022/04/29 11:39:19;;;;;;;4.03;2.80;;;11.00;99.90;;;;;;5035021;28;20058;-80
2022/04/29 11:41:59;;;;;;;3.90;2.35;;;11.00;99.90;;;;;;5048608;28;20044;-81
2022/04/29 11:44:42;;;;;;;4.90;2.30;;;11.00;99.90;;;;;;5047647;28;20053;-80
2022/04/29 11:47:08;;;;;;;5.72;2.55;;;11.00;99.90;;;;;;5031467;28;20037;-80
2022/04/29 11:49:34;;;;;;;5.75;2.53;;;11.20;99.90;;;;;;5015106;28;20378;-80
2022/04/29 11:52:30;;;;;;;5.63;2.72;;;11.10;99.90;;;;;;5031276;28;20050;-80
2022/04/29 11:55:23;;;;;;;5.72;2.72;;;11.20;99.90;;;;;;5047231;28;20045;-80
2022/04/29 11:57:50;;;;;;;5.35;2.50;;;11.30;99.90;;;;;;5043561;28;20075;-80
2022/04/29 12:00:21;;;;;;;6.05;2.42;;;11.40;99.90;;;;;;5051244;28;20052;-80
2022/04/29 12:02:50;;;;;;;6.88;2.63;;;11.20;99.90;;;;;;5051273;28;20396;-80
2022/04/29 12:05:16;;;;;;;4.97;2.60;;;11.20;99.90;;;;;;5050745;28;20086;-80
2022/04/29 12:07:43;;;;;;;5.03;2.40;;;11.00;99.90;;;;;;5051113;28;20062;-79
2022/04/29 12:10:21;;;;;;;3.30;2.35;;;11.30;99.90;;;;;;5051278;28;20036;-80
2022/04/29 12:12:48;;;;;;;7.47;2.83;;;11.30;99.90;;;;;;5038426;28;20028;-79
2022/04/29 12:15:18;;;;;;;;;;;11.30;99.90;;;;;;5055290;28;20040;-79
2022/04/29 12:17:43;;;;;;;6.85;2.30;;;11.40;99.90;;;;;;5055089;28;19962;-80
2022/04/29 12:20:18;;;;;;;7.07;2.70;;;11.60;99.90;;;;;;5055254;28;21050;-80
2022/04/29 12:22:47;;;;;;;3.97;2.30;;;11.80;99.90;;;;;;5055028;28;20040;-80
2022/04/29 12:25:23;;;;;;;3.83;2.17;;;11.40;99.90;;;;;;5050796;28;20515;-80
2022/04/29 12:28:13;;;;;;;5.50;2.53;;;11.60;99.90;;;;;;5032025;28;20048;-80
2022/04/29 12:36:54;;;;;;;6.03;2.30;;;12.10;99.90;;;;;;5051398;28;20040;-80
2022/04/29 12:39:43;;;;;;;6.82;2.65;;;12.10;99.90;;;;;;5048444;28;20048;-80
2022/04/29 12:42:15;;;;;;;4.97;2.55;;;12.20;99.90;;;;;;5019813;28;20480;-79
2022/04/29 12:45:05;;;;;;;5.82;2.10;;;12.20;99.90;;;;;;5047502;28;20093;-79
2022/04/29 12:48:00;;;;;;;7.30;2.88;;;11.90;99.90;;;;;;5045029;28;20065;-80
2022/04/29 12:50:39;;;;;;;4.85;2.38;;;11.90;99.90;;;;;;5046008;28;20507;-79
2022/04/29 12:53:09;;;;;;;4.85;2.50;;;12.10;99.90;;;;;;5027390;28;20033;-79
2022/04/29 12:55:36;;;;;;;4.43;2.40;;;12.10;99.90;;;;;;5061169;28;20127;-80
2022/04/29 12:58:06;;;;;;;4.45;2.30;;;12.10;99.90;;;;;;5046513;28;20391;-80
2022/04/29 13:00:34;;;;;;;3.38;2.30;;;12.10;99.90;;;;;;5044115;28;20037;-80
2022/04/29 13:03:04;;;;;;;6.95;2.53;;;12.00;99.90;;;;;;5028560;28;20040;-80
2022/04/29 13:05:31;;;;;;;6.07;2.30;;;11.90;99.90;;;;;;5050161;28;20037;-80
2022/04/29 13:07:57;;;;;;;4.28;2.38;;;12.20;99.90;;;;;;5045197;28;20036;-80
2022/04/29 13:10:23;;;;;;;4.32;1.90;;;12.10;99.90;;;;;;5048444;28;20090;-80
2022/04/29 13:12:49;;;;;;;3.67;2.25;;;12.10;99.90;;;;;;5033817;28;20115;-81
2022/04/29 13:15:16;;;;;;;5.63;2.00;;;12.10;99.90;;;;;;5046086;28;20045;-80
2022/04/29 13:17:41;;;;;;;;;;;11.90;99.90;;;;;;5027596;28;20045;-81
2022/04/29 13:20:08;;;;;;;3.88;2.10;;;12.00;99.90;;;;;;5047732;28;19916;-80
2022/04/29 13:22:37;;;;;;;;;;;12.00;99.90;;;;;;5045970;28;20044;-80
2022/04/29 13:25:08;;;;;;;3.95;2.17;;;12.10;99.90;;;;;;5053770;28;19927;-80
2022/04/29 13:27:34;;;;;;;4.32;2.30;;;12.20;99.90;;;;;;5059693;28;20504;-80
2022/04/29 13:30:05;;;;;;;2.90;2.08;;;12.30;99.90;;;;;;5049472;28;20060;-81
2022/04/29 13:32:32;;;;;;;4.88;2.22;;;12.20;99.90;;;;;;5049892;28;20076;-81
2022/04/29 13:34:58;;;;;;;2.65;1.90;;;12.10;99.90;;;;;;5053399;28;20105;-81
2022/04/29 13:37:24;;;;;;;6.13;2.33;;;12.00;99.90;;;;;;5036641;28;20044;-81
2022/04/29 13:39:50;;;;;;;5.95;2.22;;;11.90;99.90;;;;;;5053410;28;20040;-81